Main page
METAR-TAF:

METAR-TAF

Airports :

Aviano Air Base

Aviano, Italy

latitude: 46-02N, longitude: 012-36E, elevation: 128 m

Current weather observation

The report was made 1 hour and 38 minutes ago, at 05:55 UTC
Wind 3 kt from the Northwest
Temperature 14°C
Humidity 82%
Pressure 1029 hPa
Visibility 10 km or more
Few clouds at a height of 5000 ft

METAR: LIPA 190555Z 31003KT 9999 FEW050 14/11 Q1029 RMK FEW VIS MIN 9999 WIND THR05 30003KT WIND THR23 31004KT A3040 BLU

Time: 09:33 (07:33 UTC)

Forecast

The report was made 2 hours and 33 minutes ago, at 05:00 UTC
Forecast valid from 19 at 06 UTC to 19 at 15 UTC
Wind 3 kt from variable directions
Visibility 10 km or more
no clouds below 1500 m and no cumulonimbus

TAF: LIPA 190500Z 1906/1915 VRB03KT CAVOK

Weather observations and forecasts of more than 4000 airports (METAR and TAF reports).

The available stations are represented by yellow and red dots on the map.

Hover mouse over dot to see the name of the station.

Then click to see weather observations and forecasts.

To change the map : click on the green buttons with a black cross to zoom in, on the green button with a dash to zoom out, or on the green arrows for adjacent maps.


METAR-TAF: